Time;durP1;ratioP1;P1;durP2;ratioP2;P2;SDS_P1;SDS_P2;PMS_P1;PMS_P2;Temp;Humidity;BMP_temperature;BMP_pressure;BME280_temperature;BME280_humidity;BME280_pressure;Samples;Min_cycle;Max_cycle;Signal;HPM_P1;HPM_P2
2022/06/20 00:00:59;;;;;;;11.07;10.02;;;26.00;90.90;;;;;;5020561;28;20230;-55
2022/06/20 00:03:30;;;;;;;10.32;9.43;;;26.00;90.80;;;;;;5021543;28;20317;-54
2022/06/20 00:05:57;;;;;;;11.70;9.93;;;26.10;90.90;;;;;;5026099;28;20209;-56
2022/06/20 00:08:24;;;;;;;9.75;8.77;;;26.10;90.70;;;;;;5021932;28;20613;-55
2022/06/20 00:10:52;;;;;;;10.30;9.20;;;26.10;90.80;;;;;;5022135;28;20838;-55
2022/06/20 00:13:24;;;;;;;12.27;9.10;;;26.10;90.90;;;;;;5021240;28;20252;-57
2022/06/20 00:16:12;;;;;;;11.60;7.68;;;26.10;90.60;;;;;;5027083;28;20244;-56
2022/06/20 00:18:40;;;;;;;10.35;9.02;;;26.10;90.30;;;;;;5021546;28;20210;-55
2022/06/20 00:21:07;;;;;;;9.55;8.63;;;26.20;90.10;;;;;;5020717;28;20234;-57
2022/06/20 00:23:34;;;;;;;9.88;8.43;;;26.20;90.00;;;;;;5024329;28;20311;-54
2022/06/20 00:26:01;;;;;;;14.90;9.88;;;26.20;90.20;;;;;;5025620;28;20606;-56
2022/06/20 00:28:28;;;;;;;8.95;7.97;;;26.20;89.80;;;;;;5023105;28;20206;-56
2022/06/20 00:30:55;;;;;;;8.20;7.50;;;26.30;89.50;;;;;;5027751;28;20206;-56
2022/06/20 00:33:24;;;;;;;13.32;8.77;;;26.30;88.80;;;;;;5020424;28;20281;-56
2022/06/20 00:35:51;;;;;;;11.90;8.93;;;26.30;88.90;;;;;;5020837;28;20264;-56
2022/06/20 00:38:20;;;;;;;20.67;8.80;;;26.40;88.90;;;;;;5018579;28;20198;-56
2022/06/20 00:40:50;;;;;;;10.13;9.20;;;26.40;89.90;;;;;;5023588;28;20502;-56
2022/06/20 00:43:23;;;;;;;9.43;8.65;;;26.30;90.30;;;;;;5020842;28;20703;-56
2022/06/20 00:45:54;;;;;;;9.73;8.85;;;26.20;90.20;;;;;;5021658;28;20203;-57
2022/06/20 00:48:27;;;;;;;10.63;9.57;;;26.10;90.40;;;;;;5020653;28;20210;-57
2022/06/20 00:51:00;;;;;;;13.65;9.68;;;26.10;90.40;;;;;;5025497;28;20252;-56
2022/06/20 00:53:30;;;;;;;9.35;8.55;;;26.00;90.50;;;;;;5020344;28;20237;-57
2022/06/20 00:56:01;;;;;;;10.75;8.60;;;26.00;90.80;;;;;;5024131;28;20202;-56
2022/06/20 00:58:34;;;;;;;10.68;9.60;;;26.00;90.50;;;;;;5020347;28;20269;-56
2022/06/20 01:01:02;;;;;;;9.20;7.87;;;26.00;90.00;;;;;;5024291;28;20219;-56
2022/06/20 01:03:34;;;;;;;13.45;9.07;;;26.00;90.40;;;;;;5021424;28;20215;-56
2022/06/20 01:06:06;;;;;;;11.13;9.45;;;26.10;90.10;;;;;;5018901;28;20199;-56
2022/06/20 01:08:41;;;;;;;13.17;8.53;;;26.10;90.30;;;;;;5020338;28;20265;-56
2022/06/20 01:11:17;;;;;;;11.50;8.75;;;26.10;90.10;;;;;;5021656;28;20222;-57
2022/06/20 01:13:45;;;;;;;11.48;10.00;;;26.10;90.10;;;;;;5019920;28;20736;-56
2022/06/20 01:16:23;;;;;;;12.75;9.65;;;26.20;89.90;;;;;;5020032;28;20301;-56
2022/06/20 01:18:53;;;;;;;10.03;8.10;;;26.20;90.00;;;;;;5025773;28;20297;-56
2022/06/20 01:21:23;;;;;;;11.65;8.45;;;26.30;89.60;;;;;;5021742;28;20230;-56
2022/06/20 01:24:06;;;;;;;9.50;8.57;;;26.30;89.30;;;;;;5029026;28;20554;-56
2022/06/20 01:26:45;;;;;;;8.50;7.82;;;26.40;89.40;;;;;;5028419;28;20221;-56
2022/06/20 01:29:14;;;;;;;10.37;9.33;;;26.40;89.70;;;;;;5022089;28;20264;-56
2022/06/20 01:31:46;;;;;;;9.48;8.15;;;26.30;90.10;;;;;;5017568;28;20289;-57
2022/06/20 01:34:15;;;;;;;13.23;9.33;;;26.30;89.40;;;;;;5027003;28;20207;-56
2022/06/20 01:39:31;;;;;;;12.90;8.07;;;26.30;90.00;;;;;;5031440;28;20204;-56
2022/06/20 01:44:47;;;;;;;10.10;9.35;;;26.20;90.20;;;;;;5029405;28;20603;-56
2022/06/20 01:47:14;;;;;;;9.27;8.48;;;26.20;90.20;;;;;;5028365;28;20199;-56
2022/06/20 01:49:44;;;;;;;9.90;8.90;;;26.20;89.60;;;;;;5022561;28;20222;-56
2022/06/20 01:52:17;;;;;;;12.27;9.63;;;26.20;90.10;;;;;;5019038;28;20233;-56
2022/06/20 01:54:47;;;;;;;9.00;8.18;;;26.20;89.90;;;;;;5029502;28;20253;-56
2022/06/20 01:57:16;;;;;;;8.30;7.57;;;26.20;90.20;;;;;;5021867;28;20195;-56
2022/06/20 01:59:51;;;;;;;9.60;8.80;;;26.10;90.30;;;;;;5027707;28;20583;-56
2022/06/20 02:02:19;;;;;;;10.63;9.45;;;26.10;90.10;;;;;;5030248;28;20217;-56
2022/06/20 02:04:47;;;;;;;9.80;8.90;;;26.00;90.50;;;;;;5033398;28;20629;-56
2022/06/20 02:07:15;;;;;;;10.82;9.90;;;26.00;90.60;;;;;;5015295;28;20203;-56
2022/06/20 02:09:43;;;;;;;13.43;7.95;;;26.00;90.70;;;;;;5027565;28;20202;-57
2022/06/20 02:12:11;;;;;;;8.73;8.03;;;25.90;90.90;;;;;;5025336;28;20226;-57
2022/06/20 02:14:43;;;;;;;8.65;8.05;;;25.90;90.90;;;;;;5022976;28;20256;-56
2022/06/20 02:17:19;;;;;;;8.77;8.20;;;25.90;90.60;;;;;;5023790;28;20620;-56
2022/06/20 02:19:56;;;;;;;11.82;8.55;;;25.90;90.60;;;;;;5027608;28;20205;-56
2022/06/20 02:22:25;;;;;;;9.05;8.43;;;25.80;90.70;;;;;;5029878;28;20292;-57
2022/06/20 02:24:55;;;;;;;15.63;10.27;;;25.80;90.80;;;;;;5020977;28;20723;-56
2022/06/20 02:27:25;;;;;;;10.88;8.40;;;25.80;90.60;;;;;;5022589;28;20203;-56
2022/06/20 02:29:52;;;;;;;12.18;9.02;;;25.80;90.70;;;;;;5023830;28;20570;-56
2022/06/20 02:32:24;;;;;;;14.25;9.15;;;25.80;90.90;;;;;;5021696;28;20285;-56
2022/06/20 02:34:52;;;;;;;8.63;7.93;;;25.80;90.50;;;;;;5026780;28;20205;-56
2022/06/20 02:37:23;;;;;;;11.35;9.68;;;25.80;90.90;;;;;;5020987;28;20662;-55
2022/06/20 02:39:53;;;;;;;11.30;10.40;;;25.70;90.50;;;;;;5024953;28;20203;-57
2022/06/20 02:42:25;;;;;;;10.40;9.20;;;25.60;91.40;;;;;;5025009;28;20317;-56
2022/06/20 02:44:54;;;;;;;12.77;9.00;;;25.60;91.50;;;;;;5025876;28;20223;-57
2022/06/20 02:47:26;;;;;;;10.55;9.05;;;25.60;91.10;;;;;;5020158;28;20199;-57
2022/06/20 02:49:56;;;;;;;12.95;9.27;;;25.60;91.30;;;;;;5026657;28;20282;-56
2022/06/20 02:52:27;;;;;;;9.90;8.27;;;25.60;90.90;;;;;;5023544;28;20219;-56
2022/06/20 02:54:55;;;;;;;9.82;8.95;;;25.50;90.90;;;;;;5025418;28;20202;-56
2022/06/20 02:57:31;;;;;;;16.77;8.80;;;25.50;90.60;;;;;;5021995;28;20585;-56
2022/06/20 03:00:01;;;;;;;9.13;8.17;;;25.50;90.90;;;;;;5029267;28;20202;-56
2022/06/20 03:02:34;;;;;;;8.00;7.40;;;25.50;90.90;;;;;;5030650;28;20225;-54
2022/06/20 03:05:02;;;;;;;11.53;9.17;;;25.50;91.00;;;;;;5029103;28;20344;-56
2022/06/20 03:07:36;;;;;;;9.25;8.52;;;25.50;91.10;;;;;;5032121;28;20281;-56
2022/06/20 03:10:12;;;;;;;10.43;8.97;;;25.40;91.30;;;;;;5025541;28;20208;-54
2022/06/20 03:12:39;;;;;;;9.90;8.80;;;25.30;91.30;;;;;;5020037;28;20214;-56
2022/06/20 03:15:07;;;;;;;8.98;7.60;;;25.10;91.60;;;;;;5021507;28;20198;-55
2022/06/20 03:17:36;;;;;;;9.57;8.20;;;25.00;91.80;;;;;;5030715;28;20209;-56
2022/06/20 03:20:06;;;;;;;8.23;7.43;;;24.80;91.70;;;;;;5024316;28;20210;-56
2022/06/20 03:22:39;;;;;;;11.83;7.43;;;24.80;92.00;;;;;;5024828;28;20231;-55
2022/06/20 03:25:07;;;;;;;7.23;6.83;;;24.70;91.70;;;;;;5022911;28;20257;-57
2022/06/20 03:27:37;;;;;;;8.47;7.70;;;24.70;91.40;;;;;;5023651;28;20198;-54
2022/06/20 03:30:21;;;;;;;9.60;6.70;;;24.50;91.60;;;;;;5017866;28;20199;-56
2022/06/20 03:32:50;;;;;;;7.38;6.85;;;24.50;91.50;;;;;;5028089;28;20238;-56
2022/06/20 03:35:17;;;;;;;10.77;7.87;;;24.40;92.00;;;;;;5023108;28;20195;-56
2022/06/20 03:37:45;;;;;;;9.75;7.00;;;24.30;91.80;;;;;;5032186;28;20206;-56
2022/06/20 03:40:13;;;;;;;8.10;7.37;;;24.30;92.60;;;;;;5025586;28;20548;-57
2022/06/20 03:42:40;;;;;;;12.30;7.70;;;24.30;92.70;;;;;;5021117;28;20285;-57
2022/06/20 03:45:10;;;;;;;8.90;8.10;;;24.30;92.40;;;;;;5019375;28;20219;-57
2022/06/20 03:47:43;;;;;;;8.57;7.83;;;24.30;92.40;;;;;;5024922;28;20203;-56
2022/06/20 03:50:16;;;;;;;10.13;9.10;;;24.50;92.30;;;;;;5016625;28;20203;-56
2022/06/20 03:52:48;;;;;;;12.27;8.80;;;24.60;92.10;;;;;;5026582;28;20218;-56
2022/06/20 03:55:24;;;;;;;15.37;8.80;;;24.60;91.90;;;;;;5012568;28;20207;-56
2022/06/20 03:57:56;;;;;;;8.73;7.47;;;24.70;91.70;;;;;;5022017;28;20655;-57
2022/06/20 04:00:35;;;;;;;11.30;7.43;;;24.80;91.60;;;;;;5027777;28;20206;-56
2022/06/20 04:03:09;;;;;;;14.93;9.47;;;24.80;91.40;;;;;;5028091;28;20229;-57
2022/06/20 04:05:45;;;;;;;13.40;7.70;;;24.80;91.30;;;;;;5025742;28;20225;-57
2022/06/20 04:08:20;;;;;;;8.83;7.67;;;24.90;91.10;;;;;;5027322;28;20197;-56
2022/06/20 04:11:01;;;;;;;9.23;8.30;;;25.10;91.50;;;;;;5021373;28;20199;-56
2022/06/20 04:13:35;;;;;;;12.27;8.23;;;25.40;93.20;;;;;;5024486;28;20203;-56
2022/06/20 04:16:06;;;;;;;11.37;8.90;;;25.40;95.00;;;;;;5019175;28;20257;-56
2022/06/20 04:18:39;;;;;;;8.97;8.07;;;25.30;96.30;;;;;;5023429;28;20203;-56
2022/06/20 04:21:23;;;;;;;8.97;8.13;;;25.40;97.70;;;;;;5021305;28;20230;-56
2022/06/20 04:23:57;;;;;;;13.30;9.03;;;25.30;97.70;;;;;;5034564;23;20705;-51
2022/06/20 04:26:29;;;;;;;12.07;8.90;;;25.30;98.70;;;;;;5010997;28;20257;-51
2022/06/20 04:29:01;;;;;;;9.40;8.45;;;25.30;98.90;;;;;;5008819;28;20207;-51
2022/06/20 04:31:40;;;;;;;11.43;9.60;;;25.40;98.90;;;;;;5008972;28;20270;-51
2022/06/20 04:34:14;;;;;;;13.70;9.70;;;25.40;99.70;;;;;;5011471;28;20787;-51
2022/06/20 04:36:49;;;;;;;9.23;8.30;;;25.40;99.50;;;;;;4998239;28;20276;-51
2022/06/20 04:39:23;;;;;;;10.25;9.18;;;25.50;99.90;;;;;;5011011;28;20253;-51
2022/06/20 04:41:56;;;;;;;11.45;9.30;;;25.60;98.00;;;;;;5009163;28;20706;-51
2022/06/20 04:44:29;;;;;;;10.05;9.05;;;25.80;97.40;;;;;;5010074;28;20222;-50
2022/06/20 04:47:07;;;;;;;17.57;9.30;;;25.90;97.60;;;;;;5009687;28;20261;-51
2022/06/20 04:49:35;;;;;;;10.50;8.20;;;26.10;99.00;;;;;;5010750;28;20198;-51
2022/06/20 04:52:04;;;;;;;15.13;9.40;;;26.20;99.40;;;;;;5007344;28;20294;-51
2022/06/20 04:54:31;;;;;;;14.68;9.35;;;26.00;99.70;;;;;;5009201;28;20241;-49
2022/06/20 04:56:58;;;;;;;10.43;8.70;;;26.00;99.90;;;;;;5011710;28;20242;-51
2022/06/20 04:59:29;;;;;;;14.50;9.73;;;26.20;99.90;;;;;;5009454;28;20249;-50
2022/06/20 05:02:00;;;;;;;10.55;8.85;;;26.20;99.90;;;;;;5009112;28;20288;-50
2022/06/20 05:04:31;;;;;;;11.85;9.75;;;26.30;99.90;;;;;;5011758;28;20696;-50
2022/06/20 05:07:02;;;;;;;10.40;9.40;;;26.50;99.90;;;;;;5014733;28;20282;-51
2022/06/20 05:09:37;;;;;;;16.30;10.43;;;26.70;99.90;;;;;;5014086;28;20245;-50
2022/06/20 05:12:11;;;;;;;13.57;9.15;;;26.80;99.90;;;;;;5014438;28;20254;-51
2022/06/20 05:14:44;;;;;;;9.98;8.88;;;27.10;99.70;;;;;;5014642;28;20199;-51
2022/06/20 05:17:17;;;;;;;10.18;9.15;;;27.10;99.90;;;;;;5012866;28;20249;-51
2022/06/20 05:19:47;;;;;;;14.48;8.60;;;27.40;99.70;;;;;;5014191;28;20199;-51
2022/06/20 05:22:19;;;;;;;9.55;8.63;;;27.70;99.40;;;;;;5013055;28;20258;-51
2022/06/20 05:24:50;;;;;;;12.30;9.27;;;27.40;99.80;;;;;;5004623;28;20219;-51
2022/06/20 05:27:23;;;;;;;16.95;9.60;;;27.40;99.90;;;;;;5013136;28;20234;-51
2022/06/20 05:29:52;;;;;;;17.02;11.23;;;27.10;99.90;;;;;;5013661;28;20257;-51
2022/06/20 05:32:29;;;;;;;18.15;9.80;;;27.10;99.90;;;;;;5012712;28;20654;-51
2022/06/20 05:35:00;;;;;;;12.40;9.70;;;27.00;99.90;;;;;;5014450;28;20668;-51
2022/06/20 05:37:35;;;;;;;10.43;9.00;;;27.20;99.90;;;;;;5014452;28;20207;-51
2022/06/20 05:40:11;;;;;;;10.85;9.80;;;27.30;99.90;;;;;;5013910;28;20202;-51
2022/06/20 05:42:38;;;;;;;11.25;8.40;;;27.90;98.70;;;;;;5010015;28;20277;-51
2022/06/20 05:45:14;;;;;;;11.73;8.80;;;28.40;97.70;;;;;;5014031;28;20261;-51
2022/06/20 05:47:42;;;;;;;10.82;9.25;;;28.90;96.80;;;;;;5010484;28;20199;-51
2022/06/20 05:50:34;;;;;;;13.48;9.85;;;29.20;95.20;;;;;;5013532;28;20206;-51
2022/06/20 05:53:05;;;;;;;8.15;7.25;;;29.80;94.50;;;;;;5010864;28;20223;-51
2022/06/20 05:55:41;;;;;;;7.75;7.00;;;30.50;95.10;;;;;;5009525;28;20295;-51
2022/06/20 05:58:11;;;;;;;8.43;6.78;;;31.20;92.80;;;;;;5014680;28;20195;-50
2022/06/20 06:00:39;;;;;;;7.80;6.25;;;31.80;91.00;;;;;;5008095;28;20202;-51
2022/06/20 06:03:13;;;;;;;6.97;6.13;;;32.20;92.00;;;;;;5009671;28;20222;-51
2022/06/20 06:05:42;;;;;;;7.63;5.40;;;31.60;87.20;;;;;;5014221;28;20258;-51
2022/06/20 06:08:17;;;;;;;11.40;5.60;;;30.80;86.80;;;;;;5011400;28;20218;-51
2022/06/20 06:10:50;;;;;;;5.28;4.97;;;29.90;86.80;;;;;;5010146;28;20616;-51
2022/06/20 06:13:25;;;;;;;5.65;5.22;;;29.70;89.10;;;;;;5006050;28;20215;-51
2022/06/20 06:18:50;;;;;;;6.65;5.38;;;30.30;90.40;;;;;;5010311;28;20237;-51
2022/06/20 06:21:19;;;;;;;6.47;5.07;;;31.00;90.00;;;;;;5007344;28;20230;-51
2022/06/20 06:23:47;;;;;;;8.43;5.68;;;31.50;85.50;;;;;;5005352;28;20234;-51
2022/06/20 06:26:17;;;;;;;9.23;5.88;;;32.20;83.50;;;;;;5012219;28;20215;-51
2022/06/20 06:28:47;;;;;;;6.70;6.05;;;31.90;83.20;;;;;;5013113;28;20199;-51
2022/06/20 06:31:19;;;;;;;10.85;5.75;;;31.80;85.50;;;;;;5009377;28;20199;-51
2022/06/20 06:33:52;;;;;;;7.78;5.75;;;31.20;85.50;;;;;;5011184;28;20288;-51
2022/06/20 06:36:25;;;;;;;9.00;6.32;;;30.70;87.50;;;;;;5011507;28;20199;-51
2022/06/20 06:38:57;;;;;;;5.88;5.18;;;30.50;89.10;;;;;;5010068;28;20203;-51
2022/06/20 06:41:30;;;;;;;8.07;5.80;;;30.20;88.60;;;;;;5010790;28;20294;-51
2022/06/20 06:43:59;;;;;;;6.35;5.65;;;30.00;91.20;;;;;;5005958;28;20219;-51
2022/06/20 06:46:33;;;;;;;15.35;5.95;;;29.60;91.60;;;;;;5008621;28;20247;-50
2022/06/20 06:49:13;;;;;;;10.32;6.32;;;29.20;90.50;;;;;;5010097;28;20217;-51
2022/06/20 06:51:49;;;;;;;9.30;6.22;;;29.50;90.30;;;;;;5012362;28;20203;-51
2022/06/20 06:54:22;;;;;;;11.40;6.82;;;30.40;91.60;;;;;;5009989;28;20230;-51
2022/06/20 06:56:56;;;;;;;7.30;5.82;;;31.40;87.40;;;;;;5013022;28;20390;-51
2022/06/20 06:59:28;;;;;;;7.70;5.90;;;32.30;88.10;;;;;;5010765;28;20195;-51
2022/06/20 07:02:02;;;;;;;8.77;6.28;;;33.20;88.20;;;;;;5012768;28;20569;-51
2022/06/20 07:04:34;;;;;;;6.75;5.53;;;33.80;86.10;;;;;;5013387;28;20278;-51
2022/06/20 07:07:06;;;;;;;7.57;6.72;;;34.40;84.50;;;;;;5009114;28;20191;-51
2022/06/20 07:09:36;;;;;;;6.30;5.78;;;34.90;82.70;;;;;;5012096;28;20223;-51
2022/06/20 07:12:12;;;;;;;9.68;6.57;;;34.60;79.90;;;;;;5009073;28;20285;-51
2022/06/20 07:14:42;;;;;;;6.65;5.40;;;34.30;80.80;;;;;;5009796;28;20209;-52
2022/06/20 07:17:18;;;;;;;7.63;6.47;;;34.70;83.10;;;;;;5012489;28;20290;-52
2022/06/20 07:19:49;;;;;;;8.27;6.53;;;35.20;79.70;;;;;;5012684;28;20903;-51
2022/06/20 07:22:22;;;;;;;8.27;6.68;;;35.20;78.50;;;;;;5010684;28;20306;-52
2022/06/20 07:24:51;;;;;;;8.20;7.38;;;35.10;78.40;;;;;;5006242;28;20226;-52
2022/06/20 07:27:29;;;;;;;6.38;5.13;;;35.40;77.50;;;;;;5012443;28;20203;-52
2022/06/20 07:30:02;;;;;;;6.78;6.18;;;34.60;79.40;;;;;;5008916;28;20203;-52
2022/06/20 07:32:35;;;;;;;9.40;5.82;;;35.10;80.30;;;;;;5007713;28;20424;-52
2022/06/20 07:35:08;;;;;;;6.55;5.95;;;35.50;80.20;;;;;;5011770;28;20201;-52
2022/06/20 07:37:40;;;;;;;9.23;7.03;;;35.70;78.40;;;;;;5000881;28;20225;-52
2022/06/20 07:40:12;;;;;;;10.85;6.45;;;36.10;78.90;;;;;;5008005;28;20334;-52
2022/06/20 07:42:45;;;;;;;9.20;6.28;;;35.60;81.70;;;;;;5011219;28;20227;-52
2022/06/20 07:45:16;;;;;;;12.40;6.97;;;36.30;78.20;;;;;;5005932;28;20760;-52
2022/06/20 07:47:47;;;;;;;7.35;5.35;;;35.50;77.70;;;;;;5012044;28;20617;-52
2022/06/20 07:50:18;;;;;;;9.32;6.15;;;35.40;78.50;;;;;;5004821;28;20743;-52
2022/06/20 07:52:50;;;;;;;6.63;5.85;;;35.30;77.90;;;;;;5011452;28;20269;-52
2022/06/20 07:55:21;;;;;;;7.28;6.65;;;35.10;79.80;;;;;;5012071;28;20233;-52
2022/06/20 07:57:55;;;;;;;9.48;5.85;;;35.30;77.40;;;;;;5010161;28;20207;-52
2022/06/20 08:00:26;;;;;;;9.35;5.85;;;34.70;77.90;;;;;;5007020;28;20236;-52
2022/06/20 08:03:01;;;;;;;7.93;6.50;;;34.20;77.60;;;;;;5008786;28;20222;-52
2022/06/20 08:05:36;;;;;;;13.65;6.57;;;34.30;81.70;;;;;;5009585;28;20281;-52
2022/06/20 08:08:10;;;;;;;11.05;6.38;;;33.40;79.90;;;;;;5007778;28;20202;-52
2022/06/20 08:10:42;;;;;;;9.98;5.70;;;33.60;81.60;;;;;;5010218;28;20202;-52
2022/06/20 08:13:17;;;;;;;8.00;6.25;;;34.20;81.10;;;;;;5010132;28;20701;-52
2022/06/20 08:15:50;;;;;;;7.50;6.82;;;34.70;78.20;;;;;;5009911;28;20296;-52
2022/06/20 08:18:18;;;;;;;9.60;6.32;;;34.90;77.20;;;;;;5009101;28;20203;-52
2022/06/20 08:20:49;;;;;;;7.05;6.43;;;34.70;77.10;;;;;;5010861;28;20203;-52
2022/06/20 08:23:21;;;;;;;6.78;6.18;;;34.90;81.50;;;;;;5011658;28;20230;-52
2022/06/20 08:25:51;;;;;;;7.05;5.68;;;35.40;75.60;;;;;;5010675;28;20313;-52
2022/06/20 08:28:25;;;;;;;8.52;5.60;;;35.40;75.60;;;;;;5004281;28;20203;-52
2022/06/20 08:30:54;;;;;;;16.73;6.78;;;35.00;76.60;;;;;;5003626;28;20245;-52
2022/06/20 08:33:27;;;;;;;8.50;5.78;;;34.90;76.30;;;;;;5009091;28;20708;-52
2022/06/20 08:35:58;;;;;;;10.45;6.03;;;34.70;77.90;;;;;;5007047;28;20196;-51
2022/06/20 08:38:30;;;;;;;5.47;4.97;;;34.70;76.30;;;;;;5006910;28;20676;-52
2022/06/20 08:41:29;;;;;;;5.93;4.85;;;33.80;82.30;;;;;;5003872;28;20195;-52
2022/06/20 08:44:38;;;;;;;11.43;5.93;;;34.10;80.60;;;;;;5007748;28;20278;-52
2022/06/20 08:47:44;;;;;;;6.57;5.10;;;33.80;81.20;;;;;;5002910;28;20782;-52
2022/06/20 08:50:46;;;;;;;8.57;5.63;;;34.10;84.00;;;;;;5004389;28;20631;-52
2022/06/20 08:54:01;;;;;;;12.63;6.38;;;34.90;81.40;;;;;;5000003;28;20309;-52
2022/06/20 08:56:42;;;;;;;9.55;6.20;;;34.40;81.50;;;;;;5003373;28;20278;-52
2022/06/20 08:59:22;;;;;;;11.70;5.95;;;35.20;80.30;;;;;;5003872;28;20685;-52
2022/06/20 09:01:55;;;;;;;6.20;5.60;;;36.20;80.10;;;;;;5005813;28;20203;-52
2022/06/20 09:04:36;;;;;;;6.15;5.53;;;36.80;78.00;;;;;;5008620;28;20210;-52
2022/06/20 09:07:38;;;;;;;9.30;5.93;;;37.70;75.30;;;;;;5010882;28;20223;-52
2022/06/20 09:10:33;;;;;;;10.95;5.70;;;37.80;73.20;;;;;;5008191;28;20257;-52
2022/06/20 09:13:24;;;;;;;5.15;4.78;;;37.50;73.30;;;;;;5009450;28;20642;-52
2022/06/20 09:16:01;;;;;;;4.93;4.18;;;37.80;71.30;;;;;;5010469;28;20227;-52
2022/06/20 09:18:44;;;;;;;5.75;4.72;;;37.60;71.00;;;;;;5010182;28;20207;-52
2022/06/20 09:21:18;;;;;;;7.53;5.07;;;37.00;71.30;;;;;;5008494;28;20235;-52
2022/06/20 09:24:00;;;;;;;4.65;4.25;;;35.90;73.50;;;;;;5009540;28;20222;-52
2022/06/20 09:26:33;;;;;;;7.10;4.78;;;35.00;77.50;;;;;;5010719;28;20708;-52
2022/06/20 09:29:39;;;;;;;7.60;5.60;;;34.00;79.80;;;;;;5006928;28;20215;-52
2022/06/20 09:32:45;;;;;;;4.80;4.18;;;33.40;80.00;;;;;;5003774;28;20709;-52
2022/06/20 09:35:34;;;;;;;5.78;5.15;;;32.40;82.00;;;;;;5001282;28;20762;-52
2022/06/20 09:38:23;;;;;;;6.18;4.93;;;31.80;85.70;;;;;;5004353;28;20665;-52
2022/06/20 09:40:56;;;;;;;8.00;4.95;;;31.10;89.10;;;;;;5003610;28;20732;-52
2022/06/20 09:43:42;;;;;;;11.38;5.85;;;31.00;87.20;;;;;;5003236;28;20269;-52
2022/06/20 09:46:18;;;;;;;4.95;4.53;;;31.30;85.30;;;;;;5002341;28;20708;-52
2022/06/20 09:48:57;;;;;;;5.53;4.78;;;31.80;85.90;;;;;;5004829;28;20752;-52
2022/06/20 09:51:33;;;;;;;7.45;5.38;;;32.60;85.00;;;;;;5007082;28;20202;-52
2022/06/20 09:54:11;;;;;;;6.47;5.43;;;33.40;84.40;;;;;;5006070;28;20258;-52
2022/06/20 09:56:48;;;;;;;5.78;5.22;;;33.90;79.10;;;;;;5006819;28;20195;-52
2022/06/20 09:59:26;;;;;;;5.80;5.30;;;34.60;81.50;;;;;;5006233;28;20202;-52
2022/06/20 10:02:04;;;;;;;6.28;4.70;;;34.90;82.30;;;;;;5006617;28;20195;-52
2022/06/20 10:04:44;;;;;;;7.93;5.32;;;35.20;79.40;;;;;;5006744;28;20286;-52
2022/06/20 10:07:18;;;;;;;7.53;4.78;;;35.50;76.60;;;;;;5013381;28;20242;-52
2022/06/20 10:09:52;;;;;;;8.68;5.57;;;34.90;78.40;;;;;;5011038;28;20207;-52
2022/06/20 10:12:28;;;;;;;7.55;6.82;;;35.10;78.40;;;;;;5009658;28;20644;-52
2022/06/20 10:15:10;;;;;;;7.53;5.22;;;35.60;76.40;;;;;;5013686;28;20226;-52
2022/06/20 10:17:45;;;;;;;9.20;6.13;;;35.70;75.10;;;;;;5012275;28;20195;-52
2022/06/20 10:20:23;;;;;;;15.82;6.07;;;35.50;76.30;;;;;;5002783;28;20207;-52
2022/06/20 10:22:56;;;;;;;6.95;5.55;;;35.70;76.00;;;;;;5006504;28;20656;-52
2022/06/20 10:25:39;;;;;;;8.70;6.05;;;35.60;76.60;;;;;;5048444;23;20660;-57
2022/06/20 10:28:14;;;;;;;8.20;5.70;;;35.10;75.40;;;;;;5029536;28;20288;-58
2022/06/20 10:30:47;;;;;;;6.88;4.93;;;34.80;78.30;;;;;;5032705;28;20209;-57
2022/06/20 10:33:33;;;;;;;7.07;5.07;;;35.00;75.20;;;;;;5025672;28;20199;-58
2022/06/20 10:36:14;;;;;;;6.07;5.20;;;35.00;76.60;;;;;;5013537;28;20211;-57
2022/06/20 10:38:43;;;;;;;10.57;6.60;;;35.40;76.50;;;;;;5013647;28;20206;-57
2022/06/20 10:41:21;;;;;;;5.78;5.32;;;35.70;78.10;;;;;;5011972;28;20249;-57
2022/06/20 10:43:51;;;;;;;6.82;5.53;;;36.10;76.00;;;;;;5012583;28;20605;-57
2022/06/20 10:46:26;;;;;;;10.82;5.30;;;36.50;81.50;;;;;;5012579;28;20761;-57
2022/06/20 10:49:20;;;;;;;5.63;5.22;;;36.60;82.00;;;;;;5011950;28;20282;-57
2022/06/20 10:51:57;;;;;;;5.57;4.95;;;36.30;79.10;;;;;;5005216;28;20200;-57
2022/06/20 10:54:51;;;;;;;8.32;5.68;;;35.90;74.70;;;;;;5008107;28;20230;-57
2022/06/20 10:57:26;;;;;;;8.77;5.82;;;36.30;73.20;;;;;;5010218;28;20203;-57
2022/06/20 11:00:01;;;;;;;10.05;6.10;;;35.90;74.00;;;;;;5009587;28;20199;-57
2022/06/20 11:02:46;;;;;;;6.80;5.90;;;35.90;76.00;;;;;;5011105;28;20214;-57
2022/06/20 11:05:20;;;;;;;6.28;5.60;;;35.30;75.80;;;;;;5011531;28;20285;-57
2022/06/20 11:08:02;;;;;;;5.80;5.30;;;34.90;76.00;;;;;;5011359;28;20254;-57
2022/06/20 11:10:44;;;;;;;6.35;5.85;;;34.50;76.20;;;;;;5006761;28;20214;-57
2022/06/20 11:13:23;;;;;;;8.05;6.30;;;34.30;75.90;;;;;;5003974;28;20636;-58
2022/06/20 11:15:58;;;;;;;9.35;5.55;;;33.80;78.30;;;;;;5008134;28;20305;-57
2022/06/20 11:18:46;;;;;;;5.78;5.05;;;33.80;81.80;;;;;;5008480;28;20231;-57
2022/06/20 11:21:20;;;;;;;6.43;4.82;;;34.10;77.20;;;;;;5007606;28;20233;-57
2022/06/20 11:23:58;;;;;;;6.88;6.00;;;33.90;76.60;;;;;;5008982;28;20230;-57
2022/06/20 11:26:37;;;;;;;7.35;5.22;;;33.80;77.80;;;;;;5000785;28;20273;-57
2022/06/20 11:29:30;;;;;;;11.35;5.78;;;33.60;78.30;;;;;;4995097;28;20342;-57
2022/06/20 11:32:03;;;;;;;8.93;6.35;;;33.40;78.30;;;;;;5010490;28;20196;-57
2022/06/20 11:34:48;;;;;;;6.13;5.53;;;33.30;78.10;;;;;;5013263;28;20226;-57
2022/06/20 11:37:25;;;;;;;8.43;6.03;;;33.30;78.30;;;;;;5015747;28;20195;-57
2022/06/20 11:40:06;;;;;;;9.38;5.30;;;32.90;82.20;;;;;;5009039;28;20265;-57
2022/06/20 11:43:03;;;;;;;20.45;6.25;;;32.60;78.90;;;;;;5003295;28;20647;-57
2022/06/20 11:45:46;;;;;;;7.03;6.38;;;32.50;79.50;;;;;;5004483;28;20223;-57
2022/06/20 11:48:30;;;;;;;8.38;5.97;;;32.30;82.30;;;;;;4992848;28;20207;-57
2022/06/20 11:51:05;;;;;;;8.80;5.63;;;32.20;79.80;;;;;;5008498;28;20681;-57
2022/06/20 11:53:45;;;;;;;8.05;5.47;;;32.10;78.70;;;;;;5009502;28;20210;-57
2022/06/20 11:56:21;;;;;;;14.88;5.55;;;31.90;79.10;;;;;;5004263;28;20617;-57
2022/06/20 11:59:07;;;;;;;15.63;5.75;;;31.90;78.90;;;;;;5011802;28;20206;-57
2022/06/20 12:01:46;;;;;;;7.97;6.10;;;31.70;80.20;;;;;;5007093;28;20203;-57
2022/06/20 12:04:19;;;;;;;6.38;5.50;;;31.70;78.60;;;;;;5005280;28;20604;-57
2022/06/20 12:06:52;;;;;;;8.88;5.78;;;31.70;78.10;;;;;;5006458;28;20293;-57
2022/06/20 12:09:30;;;;;;;7.93;5.43;;;31.70;79.90;;;;;;5008028;28;20670;-57
2022/06/20 12:12:18;;;;;;;6.20;5.18;;;31.70;80.70;;;;;;5007830;28;20261;-57
2022/06/20 12:14:58;;;;;;;11.27;6.55;;;31.70;79.30;;;;;;5008362;28;20282;-57
2022/06/20 12:17:35;;;;;;;8.32;6.80;;;31.50;82.00;;;;;;5011775;28;20234;-57
2022/06/20 12:23:25;;;;;;;5.82;5.32;;;31.50;81.20;;;;;;5015049;28;20237;-57
2022/06/20 12:25:57;;;;;;;6.82;6.30;;;31.70;82.20;;;;;;5007276;28;20289;-57
2022/06/20 12:28:28;;;;;;;9.75;6.50;;;31.40;80.40;;;;;;5007166;28;20199;-57
2022/06/20 12:31:01;;;;;;;6.35;5.82;;;31.40;79.80;;;;;;5008735;28;20199;-57
2022/06/20 12:33:30;;;;;;;9.15;6.20;;;31.40;81.30;;;;;;5010296;28;20261;-57
2022/06/20 12:36:01;;;;;;;6.72;6.05;;;31.30;79.20;;;;;;5009815;28;20827;-57
2022/06/20 12:38:34;;;;;;;7.60;6.07;;;31.20;80.80;;;;;;5011027;28;20235;-57
2022/06/20 12:41:05;;;;;;;10.30;6.15;;;31.20;82.00;;;;;;4997027;28;20267;-57
2022/06/20 12:43:49;;;;;;;11.63;6.53;;;31.20;81.90;;;;;;5010909;28;20261;-57
2022/06/20 12:46:29;;;;;;;9.95;6.22;;;31.20;82.90;;;;;;5008417;28;20696;-57
2022/06/20 12:49:21;;;;;;;11.18;6.82;;;31.30;83.20;;;;;;5007899;28;20226;-57
2022/06/20 12:51:56;;;;;;;11.50;6.50;;;31.20;81.60;;;;;;4997949;28;20280;-57
2022/06/20 12:54:41;;;;;;;6.32;5.57;;;31.10;82.90;;;;;;5006607;28;20222;-57
2022/06/20 12:57:24;;;;;;;11.18;7.22;;;31.00;81.00;;;;;;5009334;28;20235;-57
2022/06/20 13:00:19;;;;;;;7.63;7.03;;;31.10;80.90;;;;;;5002805;28;20207;-57
2022/06/20 13:03:27;;;;;;;10.70;7.20;;;30.90;81.80;;;;;;5005220;28;20223;-57
2022/06/20 13:06:33;;;;;;;9.75;6.53;;;31.10;82.80;;;;;;5006560;28;20234;-57
2022/06/20 13:09:26;;;;;;;10.50;7.93;;;31.10;85.20;;;;;;4996846;28;20612;-57
2022/06/20 13:12:01;;;;;;;7.65;7.15;;;30.70;81.60;;;;;;4992478;28;20198;-57
2022/06/20 13:15:08;;;;;;;9.20;7.30;;;30.70;83.10;;;;;;5009030;28;20218;-57
2022/06/20 13:17:44;;;;;;;8.60;6.95;;;30.80;83.50;;;;;;5006673;28;20282;-57
2022/06/20 13:20:38;;;;;;;7.93;6.18;;;30.80;83.80;;;;;;5006026;28;20207;-57
2022/06/20 13:23:31;;;;;;;8.98;6.28;;;30.90;83.10;;;;;;5007143;28;20341;-57
2022/06/20 13:26:03;;;;;;;7.32;6.82;;;30.80;82.80;;;;;;5013154;28;20274;-56
2022/06/20 13:28:38;;;;;;;8.45;7.57;;;30.90;83.30;;;;;;5007962;28;20250;-57
2022/06/20 13:31:13;;;;;;;9.43;7.25;;;30.90;83.10;;;;;;5013510;28;20245;-57
2022/06/20 13:33:50;;;;;;;9.60;7.90;;;31.00;85.80;;;;;;5013193;28;20199;-57
2022/06/20 13:36:26;;;;;;;9.77;8.05;;;31.00;85.80;;;;;;5012890;28;20207;-57